Time;durP1;ratioP1;P1;durP2;ratioP2;P2;SDS_P1;SDS_P2;PMS_P1;PMS_P2;Temp;Humidity;BMP_temperature;BMP_pressure;BME280_temperature;BME280_humidity;BME280_pressure;Samples;Min_cycle;Max_cycle;Signal;HPM_P1;HPM_P2
2024/03/03 00:00:07;;;;;;;;;;;;;;;-144.99;100.00;52497.00;4969062;28;20020;-68
2024/03/03 00:02:35;;;;;;;;;;;;;;;-144.99;100.00;52517.41;4927915;28;20154;-69
2024/03/03 00:05:01;;;;;;;;;;;;;;;-144.99;100.00;52513.31;4938042;28;19980;-69
2024/03/03 00:07:28;;;;;;;;;;;;;;;-144.99;100.00;52497.00;4952090;28;19962;-66
2024/03/03 00:09:54;;;;;;;;;;;;;;;-144.99;100.00;52492.94;4943002;28;20027;-64
2024/03/03 00:12:21;;;;;;;;;;;;;;;-144.99;100.00;52517.41;4922989;28;20464;-64
2024/03/03 00:14:47;;;;;;;;;;;;;;;-144.99;100.00;52480.72;4954845;28;20472;-64
2024/03/03 00:17:13;;;;;;;;;;;;;;;-144.99;100.00;52478.66;4971172;28;20054;-64
2024/03/03 00:19:42;;;;;;;;;;;;;;;-144.99;100.00;52488.84;4940884;28;19935;-64
2024/03/03 00:22:08;;;;;;;;;;;;;;;-144.99;100.00;52505.16;4929470;28;19992;-64
2024/03/03 00:24:35;;;;;;;;;;;;;;;-144.99;100.00;52511.28;4944806;28;19975;-64
2024/03/03 00:27:01;;;;;;;;;;;;;;;-144.99;100.00;52478.66;4941889;28;20352;-65
2024/03/03 00:29:28;;;;;;;;;;;;;;;-144.99;100.00;52484.78;4930115;28;20018;-65
2024/03/03 00:31:54;;;;;;;;;;;;;;;-144.99;100.00;52509.25;4942559;28;20028;-64
2024/03/03 00:34:21;;;;;;;;;;;;;;;-144.99;100.00;52476.63;4925032;28;19996;-64
2024/03/03 00:36:48;;;;;;;;;;;;;;;-144.99;100.00;52521.47;4932874;28;19993;-65
2024/03/03 00:39:15;;;;;;;;;;;;;;;-144.99;100.00;52517.41;4959449;28;19934;-64
2024/03/03 00:41:41;;;;;;;;;;;;;;;-144.99;100.00;52513.31;4963364;28;20300;-67
2024/03/03 00:44:08;;;;;;;;;;;;;;;-144.99;100.00;52492.94;4924737;28;20039;-66
2024/03/03 00:46:34;;;;;;;;;;;;;;;-144.99;100.00;52497.00;4962996;28;19935;-66
2024/03/03 00:49:01;;;;;;;;;;;;;;;-144.99;100.00;52484.78;4917619;28;20034;-64
2024/03/03 00:51:27;;;;;;;;;;;;;;;-144.99;100.00;52517.41;4934135;28;19931;-66
2024/03/03 00:53:55;;;;;;;;;;;;;;;-144.99;100.00;52550.00;4921865;28;19931;-69
2024/03/03 00:56:22;;;;;;;;;;;;;;;-144.99;100.00;52476.63;4937370;28;20174;-66
2024/03/03 00:58:48;;;;;;;;;;;;;;;-144.99;100.00;52484.78;4923875;28;20371;-66
2024/03/03 01:01:15;;;;;;;;;;;;;;;-144.99;100.00;52517.41;4950871;28;20017;-67
2024/03/03 01:03:41;;;;;;;;;;;;;;;-144.99;100.00;52480.72;4934815;28;19934;-66
2024/03/03 01:06:08;;;;;;;;;;;;;;;-144.99;100.00;52468.47;4923157;28;19985;-67
2024/03/03 01:08:34;;;;;;;;;;;;;;;-144.99;100.00;52509.25;4950965;28;19933;-66
2024/03/03 01:11:02;;;;;;;;;;;;;;;-144.99;100.00;52554.09;4923554;28;20206;-65
2024/03/03 01:13:29;;;;;;;;;;;;;;;-144.99;100.00;52507.19;4957714;28;19935;-68
2024/03/03 01:15:55;;;;;;;;;;;;;;;-144.99;100.00;52492.94;4933836;28;19988;-67
2024/03/03 01:18:22;;;;;;;;;;;;;;;-144.99;100.00;52460.31;4991855;28;19925;-66
2024/03/03 01:20:48;;;;;;;;;;;;;;;-144.99;100.00;52464.41;4927026;28;20404;-69
2024/03/03 01:23:15;;;;;;;;;;;;;;;-144.99;100.00;52484.78;4940514;28;19931;-67
2024/03/03 01:25:43;;;;;;;;;;;;;;;-144.99;100.00;52537.78;4926226;28;19930;-68
2024/03/03 01:28:11;;;;;;;;;;;;;;;-144.99;100.00;52492.94;4915626;28;19956;-68
2024/03/03 01:30:37;;;;;;;;;;;;;;;-144.99;100.00;52501.09;4927205;28;20260;-70
2024/03/03 01:33:04;;;;;;;;;;;;;;;-144.99;100.00;52541.84;4936840;28;20249;-70
2024/03/03 01:35:30;;;;;;;;;;;;;;;-144.99;100.00;52490.91;4936457;28;19959;-70
2024/03/03 01:37:57;;;;;;;;;;;;;;;-144.99;100.00;52494.97;4964258;28;20027;-70
2024/03/03 01:40:23;;;;;;;;;;;;;;;-144.99;100.00;52497.00;4943135;28;19972;-70
2024/03/03 01:42:54;;;;;;;;;;;;;;;-144.99;100.00;52501.09;4928247;28;20310;-71
2024/03/03 01:45:24;;;;;;;;;;;;;;;-144.99;100.00;52513.31;4943065;28;19985;-69
2024/03/03 01:47:50;;;;;;;;;;;;;;;-144.99;100.00;52505.16;4934337;28;19938;-70
2024/03/03 01:50:17;;;;;;;;;;;;;;;-144.99;100.00;52499.06;4956430;28;20346;-70
2024/03/03 01:52:43;;;;;;;;;;;;;;;-144.99;100.00;52505.16;4944256;28;19935;-70
2024/03/03 01:55:10;;;;;;;;;;;;;;;-144.99;100.00;52488.84;4966749;28;20399;-69
2024/03/03 01:57:37;;;;;;;;;;;;;;;-144.99;100.00;52517.41;4934685;28;20460;-70
2024/03/03 02:00:09;;;;;;;;;;;;;;;-144.99;100.00;52517.41;4935994;28;19970;-70
2024/03/03 02:02:39;;;;;;;;;;;;;;;-144.99;100.00;52533.69;4942658;28;19931;-70
2024/03/03 02:05:06;;;;;;;;;;;;;;;-144.99;100.00;52525.56;4925827;28;20057;-70
2024/03/03 02:07:33;;;;;;;;;;;;;;;-144.99;100.00;52492.94;4919501;28;19927;-70
2024/03/03 02:09:59;;;;;;;;;;;;;;;-144.99;100.00;52517.41;4944245;28;19935;-70
2024/03/03 02:12:28;;;;;;;;;;;;;;;-144.99;100.00;52492.94;4934392;28;19931;-70
2024/03/03 02:14:54;;;;;;;;;;;;;;;-144.99;100.00;52554.09;4935922;28;19938;-69
2024/03/03 02:17:21;;;;;;;;;;;;;;;-144.99;100.00;52505.16;4925104;28;20222;-69
2024/03/03 02:19:49;;;;;;;;;;;;;;;-144.99;100.00;52501.09;4934577;28;20032;-71
2024/03/03 02:22:16;;;;;;;;;;;;;;;-144.99;100.00;52497.00;4935444;28;20432;-71
2024/03/03 02:24:43;;;;;;;;;;;;;;;-144.99;100.00;52464.41;4962759;28;19978;-71
2024/03/03 02:27:10;;;;;;;;;;;;;;;-144.99;100.00;52492.94;4931793;28;19993;-70
2024/03/03 02:29:36;;;;;;;;;;;;;;;-144.99;100.00;52497.00;4940375;28;20128;-70
2024/03/03 02:32:03;;;;;;;;;;;;;;;-144.99;100.00;52488.84;4933950;28;19935;-69
2024/03/03 02:34:29;;;;;;;;;;;;;;;-144.99;100.00;52492.94;4953673;28;20023;-70
2024/03/03 02:36:56;;;;;;;;;;;;;;;-144.99;100.00;52537.78;4935847;28;20017;-70
2024/03/03 02:39:24;;;;;;;;;;;;;;;-144.99;100.00;52494.97;4968694;28;20010;-70
2024/03/03 02:41:50;;;;;;;;;;;;;;;-144.99;100.00;52497.00;4960405;28;19938;-70
2024/03/03 02:44:17;;;;;;;;;;;;;;;-144.99;100.00;52488.84;4926855;28;20016;-71
2024/03/03 02:46:43;;;;;;;;;;;;;;;-144.99;100.00;52517.41;4955443;28;19937;-69
2024/03/03 02:49:09;;;;;;;;;;;;;;;-144.99;100.00;52466.44;4927015;28;20033;-69
2024/03/03 02:51:36;;;;;;;;;;;;;;;-144.99;100.00;52501.09;4981565;28;20029;-69
2024/03/03 02:54:03;;;;;;;;;;;;;;;-144.99;100.00;52499.06;4960433;28;19933;-69
2024/03/03 02:56:30;;;;;;;;;;;;;;;-144.99;100.00;52511.28;4941348;28;19935;-69
2024/03/03 02:58:57;;;;;;;;;;;;;;;-144.99;100.00;52488.84;4961400;28;19925;-69
2024/03/03 03:01:23;;;;;;;;;;;;;;;-144.99;100.00;52497.00;4948914;28;19961;-69
2024/03/03 03:03:50;;;;;;;;;;;;;;;-144.99;100.00;52446.06;4925036;28;19932;-69
2024/03/03 03:06:16;;;;;;;;;;;;;;;-144.99;100.00;52513.31;4938270;28;20021;-70
2024/03/03 03:08:43;;;;;;;;;;;;;;;-144.99;100.00;52484.78;4930869;28;19931;-70
2024/03/03 03:11:09;;;;;;;;;;;;;;;-144.99;100.00;52550.00;4955193;28;19941;-70
2024/03/03 03:13:37;;;;;;;;;;;;;;;-144.99;100.00;52521.47;4943218;28;19935;-70
2024/03/03 03:16:05;;;;;;;;;;;;;;;-144.99;100.00;52515.34;4955145;28;20008;-69
2024/03/03 03:18:31;;;;;;;;;;;;;;;-144.99;100.00;52466.44;4953769;28;19930;-69
2024/03/03 03:20:58;;;;;;;;;;;;;;;-144.99;100.00;52529.63;4930470;28;19931;-69
2024/03/03 03:23:24;;;;;;;;;;;;;;;-144.99;100.00;52529.63;4587136;28;10000294;-69
2024/03/03 03:25:51;;;;;;;;;;;;;;;-144.99;100.00;52497.00;4945793;28;19968;-69
2024/03/03 03:28:17;;;;;;;;;;;;;;;-144.99;100.00;52515.34;4968628;28;19927;-70
2024/03/03 03:30:44;;;;;;;;;;;;;;;-144.99;100.00;52517.41;4952756;28;20383;-71
2024/03/03 03:33:11;;;;;;;;;;;;;;;-144.99;100.00;52472.56;4926987;28;20357;-70
2024/03/03 03:35:37;;;;;;;;;;;;;;;-144.99;100.00;52456.25;4937609;28;20029;-71
2024/03/03 03:38:04;;;;;;;;;;;;;;;-144.99;100.00;52488.84;4972422;28;20008;-70
2024/03/03 03:40:30;;;;;;;;;;;;;;;-144.99;100.00;52521.47;4954890;28;20294;-70
2024/03/03 03:42:57;;;;;;;;;;;;;;;-144.99;100.00;52480.72;4942371;28;20021;-70
2024/03/03 03:45:23;;;;;;;;;;;;;;;-144.99;100.00;52523.50;4953288;28;20004;-70
2024/03/03 03:47:51;;;;;;;;;;;;;;;-144.99;100.00;52492.94;4938545;28;19991;-65
2024/03/03 03:50:18;;;;;;;;;;;;;;;-144.99;100.00;52501.09;4928597;28;19927;-65
2024/03/03 03:52:44;;;;;;;;;;;;;;;-144.99;100.00;52497.00;4924637;28;19967;-65
2024/03/03 03:55:11;;;;;;;;;;;;;;;-144.99;100.00;52505.16;4934884;28;19934;-64
2024/03/03 03:57:37;;;;;;;;;;;;;;;-144.99;100.00;52533.69;4955819;28;19927;-66
2024/03/03 04:00:05;;;;;;;;;;;;;;;-144.99;100.00;52513.31;4947758;28;19986;-65
2024/03/03 04:02:31;;;;;;;;;;;;;;;-144.99;100.00;52492.94;4948054;28;20379;-65
2024/03/03 04:04:59;;;;;;;;;;;;;;;-144.99;100.00;52517.41;4939722;28;20436;-66
2024/03/03 04:07:25;;;;;;;;;;;;;;;-144.99;100.00;52488.84;4955406;28;20017;-66
2024/03/03 04:09:52;;;;;;;;;;;;;;;-144.99;100.00;52468.47;4939244;28;20314;-68
2024/03/03 04:12:19;;;;;;;;;;;;;;;-144.99;100.00;52513.31;4922812;28;20004;-69
2024/03/03 04:14:45;;;;;;;;;;;;;;;-144.99;100.00;52517.41;4955036;28;19972;-69
2024/03/03 04:17:11;;;;;;;;;;;;;;;-144.99;100.00;52488.84;4936331;28;19958;-68
2024/03/03 04:19:38;;;;;;;;;;;;;;;-144.99;100.00;52476.63;4964334;28;19964;-69
2024/03/03 04:22:06;;;;;;;;;;;;;;;-144.99;100.00;52480.72;4920385;28;20408;-69
2024/03/03 04:24:33;;;;;;;;;;;;;;;-144.99;100.00;52513.31;4933851;28;19965;-64
2024/03/03 04:26:59;;;;;;;;;;;;;;;-144.99;100.00;52476.63;4934056;28;19960;-65
2024/03/03 04:29:26;;;;;;;;;;;;;;;-144.99;100.00;52492.94;4955573;28;20336;-65
2024/03/03 04:31:53;;;;;;;;;;;;;;;-144.99;100.00;52519.44;4948467;28;20363;-66
2024/03/03 04:34:19;;;;;;;;;;;;;;;-144.99;100.00;52472.56;4972327;28;20388;-65
2024/03/03 04:36:46;;;;;;;;;;;;;;;-144.99;100.00;52517.41;4930909;28;20046;-66
2024/03/03 04:39:14;;;;;;;;;;;;;;;-144.99;100.00;52472.56;4944171;28;20026;-66
2024/03/03 04:41:40;;;;;;;;;;;;;;;-144.99;100.00;52517.41;4923433;28;20030;-65
2024/03/03 04:44:07;;;;;;;;;;;;;;;-144.99;100.00;52515.34;4951614;28;20324;-66
2024/03/03 04:46:33;;;;;;;;;;;;;;;-144.99;100.00;52541.84;4969056;28;19927;-66
2024/03/03 04:49:00;;;;;;;;;;;;;;;-144.99;100.00;52533.69;4956661;28;19937;-66
2024/03/03 04:51:26;;;;;;;;;;;;;;;-144.99;100.00;52494.97;4934687;28;20026;-66
2024/03/03 04:53:53;;;;;;;;;;;;;;;-144.99;100.00;52511.28;4972564;28;20485;-66
2024/03/03 04:56:21;;;;;;;;;;;;;;;-144.99;100.00;52492.94;4945028;28;20352;-67
2024/03/03 04:58:47;;;;;;;;;;;;;;;-144.99;100.00;52513.31;4946266;28;19934;-67
2024/03/03 05:01:14;;;;;;;;;;;;;;;-144.99;100.00;52509.25;4941593;28;20010;-68
2024/03/03 05:03:41;;;;;;;;;;;;;;;-144.99;100.00;52509.25;4922861;28;19934;-67
2024/03/03 05:06:07;;;;;;;;;;;;;;;-144.99;100.00;52505.16;4937307;28;19935;-68
2024/03/03 05:08:39;;;;;;;;;;;;;;;-144.99;100.00;52472.56;4948676;28;21329;-68
2024/03/03 05:11:06;;;;;;;;;;;;;;;-144.99;100.00;52476.63;4958738;28;20054;-68
2024/03/03 05:13:34;;;;;;;;;;;;;;;-144.99;100.00;52494.97;4933751;28;19962;-69
2024/03/03 05:16:01;;;;;;;;;;;;;;;-144.99;100.00;52501.09;4934798;28;20019;-68
2024/03/03 05:18:27;;;;;;;;;;;;;;;-144.99;100.00;52545.94;4942018;28;19935;-64
2024/03/03 05:20:54;;;;;;;;;;;;;;;-144.99;100.00;52517.41;4950032;28;20033;-65
2024/03/03 05:23:20;;;;;;;;;;;;;;;-144.99;100.00;52490.91;4921094;28;19978;-64
2024/03/03 05:25:47;;;;;;;;;;;;;;;-144.99;100.00;52505.16;4948850;28;19988;-66
2024/03/03 05:28:14;;;;;;;;;;;;;;;-144.99;100.00;52509.25;4951171;28;19937;-66
2024/03/03 05:30:42;;;;;;;;;;;;;;;-144.99;100.00;52472.56;4919905;28;19927;-67
2024/03/03 05:33:09;;;;;;;;;;;;;;;-144.99;100.00;52492.94;4921543;28;20404;-66
2024/03/03 05:35:37;;;;;;;;;;;;;;;-144.99;100.00;52517.41;4934691;28;19933;-69
2024/03/03 05:38:03;;;;;;;;;;;;;;;-144.99;100.00;52509.25;4986961;28;19953;-67
2024/03/03 05:40:30;;;;;;;;;;;;;;;-144.99;100.00;52472.56;4968823;28;19987;-67
2024/03/03 05:42:56;;;;;;;;;;;;;;;-144.99;100.00;52515.34;4941099;28;20076;-72
2024/03/03 05:45:23;;;;;;;;;;;;;;;-144.99;100.00;52513.31;4974974;28;19964;-66
2024/03/03 05:47:51;;;;;;;;;;;;;;;-144.99;100.00;52501.09;4948839;28;20436;-72
2024/03/03 05:50:18;;;;;;;;;;;;;;;-144.99;100.00;52545.94;4926755;28;19934;-73
2024/03/03 05:52:44;;;;;;;;;;;;;;;-144.99;100.00;52529.63;4938052;28;20125;-72
2024/03/03 05:55:11;;;;;;;;;;;;;;;-144.99;100.00;52497.00;4923278;28;19927;-72
2024/03/03 05:57:37;;;;;;;;;;;;;;;-144.99;100.00;52547.97;4932072;28;19994;-72
2024/03/03 06:00:05;;;;;;;;;;;;;;;-144.99;100.00;52501.09;4963361;28;20004;-67
2024/03/03 06:02:32;;;;;;;;;;;;;;;-144.99;100.00;52484.78;4937599;28;19931;-66
2024/03/03 06:05:00;;;;;;;;;;;;;;;-144.99;100.00;52478.66;4940013;28;19934;-67
2024/03/03 06:07:26;;;;;;;;;;;;;;;-144.99;100.00;52513.31;4958670;28;20431;-65
2024/03/03 06:09:53;;;;;;;;;;;;;;;-144.99;100.00;52492.94;4955084;28;20363;-67
2024/03/03 06:12:19;;;;;;;;;;;;;;;-144.99;100.00;52521.47;4962851;28;19934;-66
2024/03/03 06:14:47;;;;;;;;;;;;;;;-144.99;100.00;52492.94;4945443;28;19961;-67
2024/03/03 06:17:14;;;;;;;;;;;;;;;-144.99;100.00;52509.25;4924879;28;19927;-66
2024/03/03 06:19:40;;;;;;;;;;;;;;;-144.99;100.00;52505.16;4932211;28;20302;-67
2024/03/03 06:22:08;;;;;;;;;;;;;;;-144.99;100.00;52492.94;4925860;28;19927;-67
2024/03/03 06:24:35;;;;;;;;;;;;;;;-144.99;100.00;52497.00;4951705;28;19982;-68
2024/03/03 06:27:02;;;;;;;;;;;;;;;-144.99;100.00;52519.44;4926861;28;20021;-66
2024/03/03 06:29:28;;;;;;;;;;;;;;;-144.99;100.00;52521.47;4933811;28;20042;-67
2024/03/03 06:31:55;;;;;;;;;;;;;;;-144.99;100.00;52513.31;4960037;28;20373;-66
2024/03/03 06:34:21;;;;;;;;;;;;;;;-144.99;100.00;52488.84;4925719;28;20476;-66
2024/03/03 06:36:48;;;;;;;;;;;;;;;-144.99;100.00;52525.56;4939635;28;19931;-66
2024/03/03 06:39:15;;;;;;;;;;;;;;;-144.99;100.00;52509.25;4932473;28;20030;-67
2024/03/03 06:41:43;;;;;;;;;;;;;;;-144.99;100.00;52476.63;4941054;28;20018;-69
2024/03/03 06:44:11;;;;;;;;;;;;;;;-144.99;100.00;52505.16;4953680;28;20085;-69
2024/03/03 06:46:43;;;;;;;;;;;;;;;-144.99;100.00;52509.25;4935045;28;19927;-69
2024/03/03 06:49:09;;;;;;;;;;;;;;;-144.99;100.00;52517.41;4954410;28;19939;-69
2024/03/03 06:51:35;;;;;;;;;;;;;;;-144.99;100.00;52507.19;4934247;28;20403;-68
2024/03/03 06:54:02;;;;;;;;;;;;;;;-144.99;100.00;52505.16;4964885;28;19925;-69
2024/03/03 06:56:30;;;;;;;;;;;;;;;-144.99;100.00;52490.91;4942750;28;20004;-70
2024/03/03 06:58:56;;;;;;;;;;;;;;;-144.99;100.00;52505.16;4969631;28;20339;-71
2024/03/03 07:01:23;;;;;;;;;;;;;;;-144.99;100.00;52537.78;4951938;28;19971;-71
2024/03/03 07:06:30;;;;;;;;;;;;;;;-144.99;100.00;52513.31;4925949;28;20040;-67
2024/03/03 07:08:57;;;;;;;;;;;;;;;-144.99;100.00;52505.16;4918561;28;20026;-68
2024/03/03 07:11:24;;;;;;;;;;;;;;;-144.99;100.00;52529.63;4966737;28;19964;-66
2024/03/03 07:13:52;;;;;;;;;;;;;;;-144.99;100.00;52484.78;4952375;28;19958;-66
2024/03/03 07:16:18;;;;;;;;;;;;;;;-144.99;100.00;52517.41;4922062;28;20363;-66
2024/03/03 07:18:45;;;;;;;;;;;;;;;-144.99;100.00;52470.50;4924125;28;19999;-67
2024/03/03 07:21:11;;;;;;;;;;;;;;;-144.99;100.00;52513.31;4954762;28;20114;-67
2024/03/03 07:23:39;;;;;;;;;;;;;;;-144.99;100.00;52476.63;4951183;28;20017;-66
2024/03/03 07:26:05;;;;;;;;;;;;;;;-144.99;100.00;52505.16;4954672;28;20112;-67
2024/03/03 07:28:32;;;;;;;;;;;;;;;-144.99;100.00;52507.19;4936700;28;20100;-66
2024/03/03 07:31:00;;;;;;;;;;;;;;;-144.99;100.00;52446.06;4971677;28;20337;-66
2024/03/03 07:33:26;;;;;;;;;;;;;;;-144.99;100.00;52509.25;4960049;28;19960;-66
2024/03/03 07:35:53;;;;;;;;;;;;;;;-144.99;100.00;52419.56;4955251;28;19972;-67
2024/03/03 07:38:19;;;;;;;;;;;;;;;-144.99;100.00;52484.78;4966514;28;19978;-70
2024/03/03 07:40:46;;;;;;;;;;;;;;;-144.99;100.00;52464.41;4930831;28;20385;-69
2024/03/03 07:43:14;;;;;;;;;;;;;;;-144.99;100.00;52468.47;4933818;28;19989;-68
2024/03/03 07:45:40;;;;;;;;;;;;;;;-144.99;100.00;52444.03;4940490;28;20399;-68
2024/03/03 07:48:08;;;;;;;;;;;;;;;-144.99;100.00;52472.56;4932156;28;20041;-73
2024/03/03 07:50:35;;;;;;;;;;;;;;;-144.99;100.00;52488.84;4962752;28;20351;-69
2024/03/03 07:53:01;;;;;;;;;;;;;;;-144.99;100.00;52464.41;4951608;28;20344;-72
2024/03/03 07:55:28;;;;;;;;;;;;;;;-144.99;100.00;52472.56;4962466;28;20019;-68
2024/03/03 07:57:55;;;;;;;;;;;;;;;-144.99;100.00;52509.25;4958227;28;19979;-70
2024/03/03 08:00:21;;;;;;;;;;;;;;;-144.99;100.00;52435.88;4931784;28;19985;-64
2024/03/03 08:02:48;;;;;;;;;;;;;;;-144.99;100.00;52472.56;4948852;28;19930;-67
2024/03/03 08:05:16;;;;;;;;;;;;;;;-144.99;100.00;52427.72;4936652;28;19973;-67
2024/03/03 08:07:43;;;;;;;;;;;;;;;-144.99;100.00;52452.16;4961336;28;19931;-68
2024/03/03 08:10:09;;;;;;;;;;;;;;;-144.99;100.00;52480.72;4990916;28;20265;-68
2024/03/03 08:12:36;;;;;;;;;;;;;;;-144.99;100.00;52460.31;4968807;28;19973;-67
2024/03/03 08:15:03;;;;;;;;;;;;;;;-144.99;100.00;52460.31;4937260;28;20370;-65
2024/03/03 08:17:29;;;;;;;;;;;;;;;-144.99;100.00;52444.03;4979653;28;20139;-66
2024/03/03 08:19:55;;;;;;;;;;;;;;;-144.99;100.00;52437.91;4955939;28;20084;-68
2024/03/03 08:22:23;;;;;;;;;;;;;;;-144.99;100.00;52444.03;4942982;28;19927;-68
2024/03/03 08:24:50;;;;;;;;;;;;;;;-144.99;100.00;52444.03;4949423;28;19974;-70
2024/03/03 08:27:16;;;;;;;;;;;;;;;-144.99;100.00;52415.47;4955468;28;19927;-68
2024/03/03 08:29:43;;;;;;;;;;;;;;;-144.99;100.00;52468.47;4952856;28;19962;-68
2024/03/03 08:32:09;;;;;;;;;;;;;;;-144.99;100.00;52427.72;4961811;28;19966;-68
2024/03/03 08:34:36;;;;;;;;;;;;;;;-144.99;98.61;52439.94;4963139;28;20424;-68
2024/03/03 08:37:03;;;;;;;;;;;;;;;-144.99;99.00;52439.94;4929292;28;19930;-69
2024/03/03 08:39:30;;;;;;;;;;;;;;;-144.99;98.14;52417.53;4946960;28;20105;-69
2024/03/03 08:41:57;;;;;;;;;;;;;;;-144.99;97.92;52415.47;4969496;28;19929;-68
2024/03/03 08:44:24;;;;;;;;;;;;;;;-144.99;96.93;52435.88;4930938;28;19931;-68
2024/03/03 08:46:50;;;;;;;;;;;;;;;-144.99;95.16;52399.19;4944337;28;19983;-68
2024/03/03 08:49:17;;;;;;;;;;;;;;;-144.99;95.55;52468.47;4956556;28;19952;-69
2024/03/03 08:51:43;;;;;;;;;;;;;;;-144.99;95.23;52435.88;4947991;28;19964;-69
2024/03/03 08:54:10;;;;;;;;;;;;;;;-144.99;94.38;52419.56;4960178;28;19966;-68
2024/03/03 08:56:38;;;;;;;;;;;;;;;-144.99;93.75;52411.41;4961128;28;19929;-69
2024/03/03 08:59:04;;;;;;;;;;;;;;;-144.99;92.80;52386.94;4933254;28;20026;-69
2024/03/03 09:01:31;;;;;;;;;;;;;;;-144.99;92.46;52388.97;4955700;28;19971;-69
2024/03/03 09:03:57;;;;;;;;;;;;;;;-144.99;90.45;52399.19;4935185;28;19989;-69
2024/03/03 09:06:24;;;;;;;;;;;;;;;-144.99;90.87;52378.78;4939518;28;20034;-69
2024/03/03 09:08:50;;;;;;;;;;;;;;;-144.99;90.11;52399.19;4932910;28;20032;-68
2024/03/03 09:11:16;;;;;;;;;;;;;;;-144.99;89.95;52366.56;4951139;28;20318;-69
2024/03/03 09:13:44;;;;;;;;;;;;;;;-144.99;89.51;52423.63;4939880;28;19927;-69
2024/03/03 09:16:11;;;;;;;;;;;;;;;-144.99;89.21;52407.31;4948972;28;20016;-69
2024/03/03 09:18:38;;;;;;;;;;;;;;;-144.99;89.32;52382.88;4967221;28;19975;-69
2024/03/03 09:21:06;;;;;;;;;;;;;;;-144.99;89.76;52413.44;4953643;28;20449;-69
2024/03/03 09:23:32;;;;;;;;;;;;;;;-144.99;88.81;52419.56;4955316;28;20285;-69
2024/03/03 09:25:59;;;;;;;;;;;;;;;-144.99;87.74;52407.31;4968991;28;19965;-70
2024/03/03 09:28:26;;;;;;;;;;;;;;;-144.99;87.07;52370.63;4942634;28;19938;-69
2024/03/03 09:30:55;;;;;;;;;;;;;;;-144.99;86.07;52382.88;4933725;28;20010;-69
2024/03/03 09:33:21;;;;;;;;;;;;;;;-144.99;84.43;52423.63;4969636;28;20007;-69
2024/03/03 09:35:48;;;;;;;;;;;;;;;-144.99;84.29;52413.44;4964460;28;20279;-69
2024/03/03 09:38:14;;;;;;;;;;;;;;;-144.99;83.38;52393.06;4936324;28;19935;-69
2024/03/03 09:40:44;;;;;;;;;;;;;;;-144.99;81.88;52370.63;4982556;28;19931;-69
2024/03/03 09:43:15;;;;;;;;;;;;;;;-144.99;80.22;52386.94;4955146;28;20021;-69
2024/03/03 09:45:41;;;;;;;;;;;;;;;-144.99;80.55;52370.63;4978830;28;20026;-69
2024/03/03 09:48:09;;;;;;;;;;;;;;;-144.99;79.49;52386.94;4954223;28;19927;-69
2024/03/03 09:50:36;;;;;;;;;;;;;;;-144.99;78.20;52325.81;4949380;28;20000;-70
2024/03/03 09:53:03;;;;;;;;;;;;;;;-144.99;77.35;52376.75;4999526;28;19992;-69
2024/03/03 09:55:30;;;;;;;;;;;;;;;-144.99;75.54;52378.78;4956772;28;19979;-70
2024/03/03 09:57:57;;;;;;;;;;;;;;;-144.99;75.63;52338.03;4953910;28;20348;-70
2024/03/03 10:00:24;;;;;;;;;;;;;;;-144.99;74.64;52354.34;4950614;28;19931;-70
2024/03/03 10:02:50;;;;;;;;;;;;;;;-144.99;73.78;52321.72;4963751;28;19988;-70
2024/03/03 10:05:20;;;;;;;;;;;;;;;-144.99;72.95;52329.88;4946418;28;20334;-70
2024/03/03 10:07:48;;;;;;;;;;;;;;;-144.99;71.44;52311.53;4966215;28;19946;-70
2024/03/03 10:10:17;;;;;;;;;;;;;;;-144.99;69.96;52289.13;4953448;28;19988;-70
2024/03/03 10:12:46;;;;;;;;;;;;;;;-144.99;69.55;52293.19;4979729;28;19996;-69
2024/03/03 10:15:12;;;;;;;;;;;;;;;-144.99;68.92;52299.31;4948975;28;19931;-70
2024/03/03 10:17:39;;;;;;;;;;;;;;;-144.99;67.39;52291.16;4949654;28;19978;-70
2024/03/03 10:20:07;;;;;;;;;;;;;;;-144.99;67.03;52252.44;4965229;28;19931;-69
2024/03/03 10:22:35;;;;;;;;;;;;;;;-144.99;66.08;52262.63;4943024;28;19954;-70
2024/03/03 10:25:11;;;;;;;;;;;;;;;-144.99;65.77;52262.63;4956354;28;19974;-70
2024/03/03 10:27:39;;;;;;;;;;;;;;;-144.99;64.20;52248.34;4967087;28;19979;-70
2024/03/03 10:30:07;;;;;;;;;;;;;;;-144.99;63.44;52244.28;4939401;28;20316;-70
2024/03/03 10:32:34;;;;;;;;;;;;;;;-144.99;62.60;52238.16;4981866;28;20061;-70
2024/03/03 10:35:01;;;;;;;;;;;;;;;-144.99;62.24;52244.28;4951285;28;19977;-70
2024/03/03 10:37:28;;;;;;;;;;;;;;;-144.99;61.92;52211.66;4986490;28;19925;-69
2024/03/03 10:39:56;;;;;;;;;;;;;;;-144.99;61.34;52199.44;4961935;28;20395;-70
2024/03/03 10:42:23;;;;;;;;;;;;;;;-144.99;61.00;52240.19;4971824;28;19941;-70
2024/03/03 10:44:49;;;;;;;;;;;;;;;-144.99;60.45;52223.88;4958608;28;20387;-70
2024/03/03 10:47:16;;;;;;;;;;;;;;;-144.99;60.91;52203.50;4937954;28;19966;-70
2024/03/03 10:49:42;;;;;;;;;;;;;;;-144.99;59.90;52191.28;4977006;28;19927;-70
2024/03/03 10:52:09;;;;;;;;;;;;;;;-144.99;58.95;52154.59;4993010;28;19949;-69
2024/03/03 10:54:35;;;;;;;;;;;;;;;-144.99;57.66;52132.19;4981083;28;19934;-69
2024/03/03 10:57:03;;;;;;;;;;;;;;;-144.99;57.17;52130.13;4954699;28;19929;-69
2024/03/03 10:59:31;;;;;;;;;;;;;;;-144.99;56.14;52154.59;4979367;28;19935;-70
2024/03/03 11:01:58;;;;;;;;;;;;;;;-144.99;55.05;52154.59;4958859;28;20339;-69
2024/03/03 11:04:29;;;;;;;;;;;;;;;-144.99;55.98;52203.50;4938450;28;19977;-69
2024/03/03 11:06:57;;;;;;;;;;;;;;;-144.99;56.67;52191.28;4945653;28;19933;-69
2024/03/03 11:09:23;;;;;;;;;;;;;;;-144.99;57.27;52256.50;4939493;28;19966;-69
2024/03/03 11:11:53;;;;;;;;;;;;;;;-144.99;57.33;52234.09;4980466;28;19976;-69
2024/03/03 11:14:22;;;;;;;;;;;;;;;-144.99;57.89;52252.44;4952942;28;20028;-70
2024/03/03 11:16:50;;;;;;;;;;;;;;;-144.99;57.87;52256.50;4988062;28;19932;-69
2024/03/03 11:19:20;;;;;;;;;;;;;;;-144.99;57.53;52191.28;4947630;28;20069;-69
2024/03/03 11:21:51;;;;;;;;;;;;;;;-144.99;56.83;52199.44;4940331;28;20017;-69
2024/03/03 11:24:21;;;;;;;;;;;;;;;-144.99;56.13;52199.44;4971694;28;20023;-69
2024/03/03 11:26:51;;;;;;;;;;;;;;;-144.99;56.11;52187.19;4944826;28;19977;-68
2024/03/03 11:29:19;;;;;;;;;;;;;;;-144.99;55.72;52187.19;4960037;28;19946;-67
2024/03/03 11:31:48;;;;;;;;;;;;;;;-144.99;55.99;52223.88;4951938;28;20025;-67
2024/03/03 11:34:15;;;;;;;;;;;;;;;-144.99;55.82;52183.13;4967124;28;19974;-68
2024/03/03 11:36:41;;;;;;;;;;;;;;;-144.99;55.64;52213.69;4956663;28;19931;-68
2024/03/03 11:39:14;;;;;;;;;;;;;;;-144.99;55.60;52199.44;4962017;28;20349;-67
2024/03/03 11:41:41;;;;;;;;;;;;;;;-144.99;55.79;52195.34;4965724;28;20573;-67
2024/03/03 11:44:35;;;;;;;;;;;;;;;-144.99;55.62;52207.59;4955028;28;19927;-67
2024/03/03 11:47:03;;;;;;;;;;;;;;;-144.99;54.72;52187.19;4944525;28;19929;-67
2024/03/03 11:49:31;;;;;;;;;;;;;;;-144.99;54.13;52162.75;4929199;28;19970;-67
2024/03/03 11:51:58;;;;;;;;;;;;;;;-144.99;53.79;52162.75;4930789;28;19942;-67
2024/03/03 11:54:31;;;;;;;;;;;;;;;-144.99;53.60;52195.34;4929918;28;20042;-67
2024/03/03 11:56:58;;;;;;;;;;;;;;;-144.99;53.06;52140.31;4929111;28;19930;-68
2024/03/03 11:59:25;;;;;;;;;;;;;;;-144.99;53.53;52170.91;4927723;28;19970;-67
2024/03/03 12:01:54;;;;;;;;;;;;;;;-144.99;53.67;52128.09;4931165;28;19980;-67
2024/03/03 12:04:22;;;;;;;;;;;;;;;-144.99;54.00;52179.06;4929196;28;19937;-67
2024/03/03 12:06:48;;;;;;;;;;;;;;;-144.99;53.76;52152.56;4939897;28;19966;-68
2024/03/03 12:09:17;;;;;;;;;;;;;;;-144.99;53.05;52138.28;4931102;28;20450;-68
2024/03/03 12:11:44;;;;;;;;;;;;;;;-144.99;52.96;52124.03;4930906;28;19937;-67
2024/03/03 12:14:10;;;;;;;;;;;;;;;-144.99;52.59;52140.31;4928352;28;19939;-67
2024/03/03 12:16:37;;;;;;;;;;;;;;;-144.99;52.26;52179.06;4937743;28;20014;-68
2024/03/03 12:19:03;;;;;;;;;;;;;;;-144.99;51.54;52117.91;4946815;28;20014;-67
2024/03/03 12:21:32;;;;;;;;;;;;;;;-144.99;51.25;52117.91;4945785;28;19934;-68